• Join FlightAware (Why Join?)
  • Login
  • US Flag 
11:54PM EDT


 

Airport Tracker/Info


-or-


 

Live Flight TrackerFlight Track Log ✈ CTL18 ✈ 13-May-2013 ✈ KYIP - KBKL

Flight Track Log - Related Links

Times and Time Zones

All times are in EDT time to prevent confusion due to time zone crossing. See the CTL18 flight status page for this flight to view local times or setup timezone preferences in your user account.

Time Position Orientation Groundspeed Altitude Reporting Facility
EDT Latitude Longitude Course Direction KTS MPH feet Rate Location/Type
09:10PM 42.2192 -83.5664 237° Southwest 108 124 1,700  Level Cleveland Center
09:11PM 42.1933 -83.6017 225° Southwest 124 143 2,700 660 Climbing Cleveland Center
09:12PM 42.1653 -83.6367 223° Southwest 146 168 3,100 540 Climbing Cleveland Center
09:13PM 42.1331 -83.6744 221° Southwest 148 170 3,800 720 Climbing Cleveland Center
09:14PM 42.1069 -83.7094 225° Southwest 133 153 4,600 540 Climbing Cleveland Center
09:15PM 42.1284 -83.2393 101° East  Level Estimated
09:15PM 42.0811 -83.7419 223° Southwest 127 146 5,000  Level Cleveland Center
09:16PM 42.0503 -83.7319 166° South 181 208 5,000  Level Cleveland Center
09:17PM 42.0333 -83.6556 107° East 187 215 5,000  Level Cleveland Center
09:18PM 42.0144 -83.5906 111° Southeast 182 209 5,000  Level Cleveland Center
09:19PM 41.9992 -83.5311 109° East 184 212 5,000  Level Cleveland Center
09:20PM 41.9822 -83.4658 109° East 182 209 5,000  Level Cleveland Center
09:21PM 41.9650 -83.3981 109° East 180 207 5,100  Climbing Cleveland Center
09:22PM 41.9436 -83.3331 114° Southeast 186 214 5,000 -120 Descending Cleveland Center
09:23PM 41.9264 -83.2653 109° East 185 213 4,900  Descending Cleveland Center
09:24PM 41.9092 -83.2003 110° East 185 213 5,000  Climbing Cleveland Center
09:25PM 41.8939 -83.1383 108° East 187 215 5,000 -60 Level Cleveland Center
09:26PM 41.8747 -83.0706 111° Southeast 186 214 4,900 -120 Descending Cleveland Center
09:26PM 41.8708 -83.0539 107° East 185 213 4,900 60 Level Cleveland Center
09:27PM 41.8589 -83.0197 115° Southeast 187 215 5,000  Climbing Cleveland Center
09:28PM 41.8378 -82.9411 110° East 183 211 5,000  Level Cleveland Center
09:29PM 41.8225 -82.8736 107° East 188 216 5,000  Level Cleveland Center
09:30PM 41.8050 -82.8089 110° East 184 212 5,000  Level Cleveland Center
09:31PM 41.7875 -82.7414 109° East 188 216 5,000  Level Cleveland Center
09:32PM 41.7719 -82.6714 107° East 191 220 5,000  Level Cleveland Center
09:33PM 41.7522 -82.6094 113° Southeast 188 216 5,000  Level Cleveland Center
09:34PM 41.7347 -82.5419 109° East 190 219 5,000  Level Cleveland Center
09:35PM 41.7153 -82.4608 108° East 192 221 5,000  Level Cleveland Center
09:36PM 41.6956 -82.3908 111° Southeast 191 220 5,000 -180 Level Cleveland Center
09:37PM 41.6758 -82.3178 110° East 197 227 4,600 -600 Descending Cleveland Center
09:38PM 41.6600 -82.2536 108° East 213 245 3,900 -780 Descending Cleveland Center
09:39PM 41.6383 -82.1781 111° Southeast 208 239 3,200 -540 Descending Cleveland Center
09:40PM 41.6225 -82.1108 107° East 200 230 2,900 -120 Descending Cleveland Center
09:41PM 41.6067 -82.0467 108° East 175 201 3,000  Climbing Cleveland Center
09:42PM 41.5886 -81.9878 112° Southeast 167 192 2,900 -180 Descending Cleveland Center
09:43PM 41.5747 -81.9322 108° East 170 196 2,700 -420 Descending Cleveland Center
09:44PM 41.5586 -81.8792 112° Southeast 165 190 2,100 -660 Descending Cleveland Center